Time;durP1;ratioP1;P1;durP2;ratioP2;P2;SDS_P1;SDS_P2;PMS_P1;PMS_P2;Temp;Humidity;BMP_temperature;BMP_pressure;BME280_temperature;BME280_humidity;BME280_pressure;Samples;Min_cycle;Max_cycle;Signal;HPM_P1;HPM_P2
2022/05/20 00:00:33;;;;;;;6.70;4.17;;;;;;;;;;4951793;28;21363;-41
2022/05/20 00:02:59;;;;;;;8.47;3.90;;;;;;;;;;4954330;28;20365;-42
2022/05/20 00:05:27;;;;;;;8.37;4.13;;;;;;;;;;4958885;28;20174;-41
2022/05/20 00:07:54;;;;;;;5.63;3.83;;;;;;;;;;4951087;28;20399;-44
2022/05/20 00:10:20;;;;;;;8.70;3.70;;;;;;;;;;4954842;28;20765;-42
2022/05/20 00:12:47;;;;;;;9.43;3.83;;;;;;;;;;4955466;28;20621;-42
2022/05/20 00:15:15;;;;;;;6.77;3.70;;;;;;;;;;4952829;28;20205;-42
2022/05/20 00:17:41;;;;;;;7.93;3.37;;;;;;;;;;4955888;28;20205;-42
2022/05/20 00:20:08;;;;;;;8.17;3.70;;;;;;;;;;4955133;28;20800;-42
2022/05/20 00:22:34;;;;;;;7.60;3.47;;;;;;;;;;4956654;28;20852;-42
2022/05/20 00:27:44;;;;;;;6.43;3.63;;;;;;;;;;4953827;28;20264;-42
2022/05/20 00:30:11;;;;;;;6.03;3.40;;;;;;;;;;4953698;28;20182;-42
2022/05/20 00:32:37;;;;;;;3.90;2.97;;;;;;;;;;4940721;28;20694;-42
2022/05/20 00:35:04;;;;;;;6.00;3.17;;;;;;;;;;4954950;28;20657;-42
2022/05/20 00:37:30;;;;;;;7.27;3.87;;;;;;;;;;4954127;28;20205;-42
2022/05/20 00:39:56;;;;;;;6.13;4.10;;;;;;;;;;4954693;28;20286;-42
2022/05/20 00:42:22;;;;;;;7.57;3.50;;;;;;;;;;4951992;28;20277;-42
2022/05/20 00:44:48;;;;;;;6.13;3.50;;;;;;;;;;4953392;28;21484;-41
2022/05/20 00:47:15;;;;;;;7.23;3.50;;;;;;;;;;4958765;28;20213;-42
2022/05/20 00:49:44;;;;;;;6.13;3.30;;;;;;;;;;4957773;28;20178;-42
2022/05/20 00:52:11;;;;;;;5.83;3.00;;;;;;;;;;4953585;28;20189;-42
2022/05/20 00:54:39;;;;;;;4.97;3.00;;;;;;;;;;4941985;28;20268;-42
2022/05/20 00:57:09;;;;;;;9.00;2.90;;;;;;;;;;4952871;28;20889;-42
2022/05/20 00:59:37;;;;;;;6.87;2.80;;;;;;;;;;4955049;28;20274;-42
2022/05/20 01:02:10;;;;;;;9.13;3.43;;;;;;;;;;4952688;28;20456;-43
2022/05/20 01:04:37;;;;;;;5.63;3.10;;;;;;;;;;4959772;28;20534;-43
2022/05/20 01:07:05;;;;;;;5.70;3.10;;;;;;;;;;4953124;28;20189;-43
2022/05/20 01:09:31;;;;;;;7.10;3.40;;;;;;;;;;4955340;28;20209;-43
2022/05/20 01:11:57;;;;;;;7.53;3.00;;;;;;;;;;4952365;28;21330;-41
2022/05/20 01:14:26;;;;;;;6.27;3.10;;;;;;;;;;4954715;28;20182;-43
2022/05/20 01:16:53;;;;;;;9.20;3.30;;;;;;;;;;4952827;28;20405;-42
2022/05/20 01:19:40;;;;;;;9.43;3.70;;;;;;;;;;4956420;28;20981;-42
2022/05/20 01:22:08;;;;;;;9.87;4.13;;;;;;;;;;4955749;28;20178;-42
2022/05/20 01:24:34;;;;;;;7.80;4.50;;;;;;;;;;4956741;28;20181;-41
2022/05/20 01:27:00;;;;;;;8.57;4.27;;;;;;;;;;4955641;28;20773;-41
2022/05/20 01:29:27;;;;;;;5.23;3.80;;;;;;;;;;4956241;28;20197;-41
2022/05/20 01:31:53;;;;;;;5.27;3.47;;;;;;;;;;4952683;28;20178;-42
2022/05/20 01:34:20;;;;;;;9.17;4.30;;;;;;;;;;4953049;28;20185;-42
2022/05/20 01:36:46;;;;;;;8.13;4.73;;;;;;;;;;4957695;28;20202;-42
2022/05/20 01:39:12;;;;;;;11.23;4.20;;;;;;;;;;4960219;28;20297;-42
2022/05/20 01:41:44;;;;;;;10.57;4.87;;;;;;;;;;4952658;28;20461;-42
2022/05/20 01:44:24;;;;;;;8.40;3.97;;;;;;;;;;4954928;28;20285;-41
2022/05/20 01:46:57;;;;;;;10.57;4.70;;;;;;;;;;4958794;28;20454;-42
2022/05/20 01:49:35;;;;;;;11.70;4.67;;;;;;;;;;4952419;28;20225;-42
2022/05/20 01:52:07;;;;;;;12.00;5.60;;;;;;;;;;4956011;28;20441;-41
2022/05/20 01:54:39;;;;;;;8.50;5.00;;;;;;;;;;4958863;28;20614;-41
2022/05/20 01:57:21;;;;;;;10.47;5.20;;;;;;;;;;4951471;28;20202;-41
2022/05/20 01:59:50;;;;;;;9.70;4.47;;;;;;;;;;4950294;28;20182;-42
2022/05/20 02:02:24;;;;;;;9.20;5.43;;;;;;;;;;4955102;28;20173;-41
2022/05/20 02:04:54;;;;;;;10.93;5.10;;;;;;;;;;4958851;28;20403;-42
2022/05/20 02:07:22;;;;;;;12.87;5.80;;;;;;;;;;4952204;28;20580;-42
2022/05/20 02:10:03;;;;;;;11.03;5.50;;;;;;;;;;4956280;28;20290;-42
2022/05/20 02:12:34;;;;;;;9.77;5.73;;;;;;;;;;4953365;28;20272;-42
2022/05/20 02:15:10;;;;;;;9.20;5.70;;;;;;;;;;4956045;28;20678;-42
2022/05/20 02:17:38;;;;;;;13.10;5.73;;;;;;;;;;4956726;28;20602;-42
2022/05/20 02:20:10;;;;;;;10.93;6.03;;;;;;;;;;4960758;28;20718;-42
2022/05/20 02:22:41;;;;;;;9.37;5.47;;;;;;;;;;4932676;28;20182;-42
2022/05/20 02:25:09;;;;;;;9.50;6.10;;;;;;;;;;4958396;28;20264;-42
2022/05/20 02:27:39;;;;;;;13.30;5.67;;;;;;;;;;4959983;28;20208;-42
2022/05/20 02:30:06;;;;;;;10.73;5.40;;;;;;;;;;4962099;28;20205;-42
2022/05/20 02:32:36;;;;;;;8.50;5.13;;;;;;;;;;4960223;28;20806;-41
2022/05/20 02:35:02;;;;;;;8.47;4.90;;;;;;;;;;4964625;28;20186;-42
2022/05/20 02:37:30;;;;;;;10.23;5.40;;;;;;;;;;4962830;28;20249;-42
2022/05/20 02:39:56;;;;;;;8.47;5.40;;;;;;;;;;4960729;28;20182;-42
2022/05/20 02:42:23;;;;;;;8.03;5.67;;;;;;;;;;4961384;28;20186;-42
2022/05/20 02:44:49;;;;;;;10.37;4.97;;;;;;;;;;4959623;28;20710;-42
2022/05/20 02:47:15;;;;;;;9.63;5.70;;;;;;;;;;4959298;28;20212;-42
2022/05/20 02:49:41;;;;;;;7.10;5.07;;;;;;;;;;4958026;28;20596;-42
2022/05/20 02:52:08;;;;;;;10.77;5.70;;;;;;;;;;4963782;28;20252;-41
2022/05/20 02:54:34;;;;;;;10.50;5.70;;;;;;;;;;4959927;28;20259;-41
2022/05/20 02:57:01;;;;;;;9.33;5.40;;;;;;;;;;4961487;28;20205;-42
2022/05/20 03:04:56;;;;;;;8.27;4.63;;;;;;;;;;4956626;28;20451;-41
2022/05/20 03:07:22;;;;;;;8.17;4.23;;;;;;;;;;4960294;28;20182;-42
2022/05/20 03:09:51;;;;;;;12.73;5.20;;;;;;;;;;4959612;28;20271;-42
2022/05/20 03:12:18;;;;;;;7.87;4.57;;;;;;;;;;4959322;28;20218;-42
2022/05/20 03:14:44;;;;;;;11.57;5.07;;;;;;;;;;4959552;28;20217;-42
2022/05/20 03:17:10;;;;;;;7.00;4.43;;;;;;;;;;4958383;28;20320;-42
2022/05/20 03:19:37;;;;;;;13.00;4.90;;;;;;;;;;4959881;28;20181;-43
2022/05/20 03:22:04;;;;;;;8.23;5.50;;;;;;;;;;4955937;28;20179;-41
2022/05/20 03:24:31;;;;;;;5.73;4.33;;;;;;;;;;4960403;28;20186;-41
2022/05/20 03:26:57;;;;;;;8.93;5.00;;;;;;;;;;4963461;28;20186;-41
2022/05/20 03:29:23;;;;;;;13.13;5.03;;;;;;;;;;4953236;28;20222;-41
2022/05/20 03:31:49;;;;;;;6.63;4.70;;;;;;;;;;4958877;28;20261;-41
2022/05/20 03:34:17;;;;;;;8.00;4.77;;;;;;;;;;4962822;28;20293;-41
2022/05/20 03:36:44;;;;;;;8.13;5.03;;;;;;;;;;4962123;28;20226;-41
2022/05/20 03:39:11;;;;;;;7.60;4.63;;;;;;;;;;4958036;28;20189;-44
2022/05/20 03:41:38;;;;;;;6.60;4.53;;;;;;;;;;4962067;28;20296;-44
2022/05/20 03:44:05;;;;;;;7.63;4.43;;;;;;;;;;4958420;28;20248;-42
2022/05/20 03:46:31;;;;;;;6.17;4.43;;;;;;;;;;4958166;28;20178;-43
2022/05/20 03:48:59;;;;;;;10.27;4.90;;;;;;;;;;4959032;28;20649;-43
2022/05/20 03:51:25;;;;;;;9.90;4.80;;;;;;;;;;4962051;28;20178;-44
2022/05/20 03:53:51;;;;;;;9.60;4.77;;;;;;;;;;4955075;28;20197;-42
2022/05/20 03:56:17;;;;;;;9.47;4.80;;;;;;;;;;4951498;28;20417;-43
2022/05/20 03:58:43;;;;;;;9.40;4.63;;;;;;;;;;4959265;28;20646;-42
2022/05/20 04:03:56;;;;;;;6.50;4.20;;;;;;;;;;4955327;28;20667;-42
2022/05/20 04:06:22;;;;;;;6.00;4.20;;;;;;;;;;4961574;28;20710;-42
2022/05/20 04:08:49;;;;;;;11.47;4.53;;;;;;;;;;4958071;28;20174;-42
2022/05/20 04:11:15;;;;;;;9.57;4.43;;;;;;;;;;4958211;28;20179;-41
2022/05/20 04:13:42;;;;;;;9.10;4.47;;;;;;;;;;4959668;28;20378;-42
2022/05/20 04:16:09;;;;;;;7.00;4.63;;;;;;;;;;4959767;28;20213;-40
2022/05/20 04:18:35;;;;;;;6.63;4.60;;;;;;;;;;4955929;28;20512;-41
2022/05/20 04:21:01;;;;;;;8.93;4.70;;;;;;;;;;4957418;28;20899;-42
2022/05/20 04:23:28;;;;;;;11.40;4.40;;;;;;;;;;4959599;28;20547;-42
2022/05/20 04:25:54;;;;;;;8.23;4.53;;;;;;;;;;4960165;28;20182;-41
2022/05/20 04:28:20;;;;;;;7.73;5.03;;;;;;;;;;4955163;28;20190;-41
2022/05/20 04:30:46;;;;;;;11.43;4.77;;;;;;;;;;4953263;28;20197;-42
2022/05/20 04:33:13;;;;;;;12.73;6.00;;;;;;;;;;4955872;28;20223;-42
2022/05/20 04:35:39;;;;;;;11.07;5.97;;;;;;;;;;4962275;28;21119;-41
2022/05/20 04:38:05;;;;;;;11.30;6.17;;;;;;;;;;4957034;28;20206;-42
2022/05/20 04:40:31;;;;;;;8.97;5.47;;;;;;;;;;4958153;28;20226;-42
2022/05/20 04:48:27;;;;;;;9.53;5.67;;;;;;;;;;4952525;28;20947;-44
2022/05/20 04:50:53;;;;;;;11.00;6.43;;;;;;;;;;4960284;28;20790;-42
2022/05/20 04:56:04;;;;;;;14.93;7.40;;;;;;;;;;4954827;28;20197;-44
2022/05/20 04:58:30;;;;;;;11.83;7.63;;;;;;;;;;4955864;28;20329;-42
2022/05/20 05:00:56;;;;;;;11.90;7.57;;;;;;;;;;4951946;28;20178;-43
2022/05/20 05:03:22;;;;;;;12.77;8.30;;;;;;;;;;4957046;28;20170;-43
2022/05/20 05:05:48;;;;;;;11.23;7.53;;;;;;;;;;4958876;28;20174;-43
2022/05/20 05:08:18;;;;;;;14.60;9.10;;;;;;;;;;4954414;28;20608;-44
2022/05/20 05:10:45;;;;;;;9.13;8.07;;;;;;;;;;4950337;28;20191;-43
2022/05/20 05:13:13;;;;;;;13.87;10.00;;;;;;;;;;4957586;28;20182;-43
2022/05/20 05:15:42;;;;;;;17.80;10.57;;;;;;;;;;4956677;28;20178;-43
2022/05/20 05:18:14;;;;;;;20.93;12.70;;;;;;;;;;4955486;28;20213;-44
2022/05/20 05:20:42;;;;;;;21.47;13.13;;;;;;;;;;4954997;28;20256;-43
2022/05/20 05:23:08;;;;;;;22.20;13.17;;;;;;;;;;4955819;28;20181;-43
2022/05/20 05:25:35;;;;;;;20.07;13.33;;;;;;;;;;4957804;28;20182;-43
2022/05/20 05:28:02;;;;;;;19.60;13.47;;;;;;;;;;4954292;28;20186;-42
2022/05/20 05:30:28;;;;;;;21.40;13.50;;;;;;;;;;4951756;28;20631;-44
2022/05/20 05:32:54;;;;;;;24.83;12.73;;;;;;;;;;4955917;28;20760;-43
2022/05/20 05:35:22;;;;;;;21.57;12.07;;;;;;;;;;4956610;28;20266;-44
2022/05/20 05:37:48;;;;;;;22.23;10.93;;;;;;;;;;4947724;28;20201;-44
2022/05/20 05:40:16;;;;;;;21.23;12.77;;;;;;;;;;4960946;28;20194;-44
2022/05/20 05:42:42;;;;;;;21.30;11.23;;;;;;;;;;4956718;28;20201;-43
2022/05/20 05:45:09;;;;;;;23.37;11.57;;;;;;;;;;4959546;28;20587;-43
2022/05/20 05:47:35;;;;;;;17.73;12.17;;;;;;;;;;4960831;28;20174;-44
2022/05/20 05:50:01;;;;;;;19.53;10.97;;;;;;;;;;4965679;28;20229;-44
2022/05/20 05:52:27;;;;;;;17.87;11.60;;;;;;;;;;4960601;28;20724;-44
2022/05/20 05:54:53;;;;;;;17.73;12.33;;;;;;;;;;4958427;28;20437;-43
2022/05/20 05:57:19;;;;;;;21.50;11.73;;;;;;;;;;4965416;28;20278;-44
2022/05/20 05:59:45;;;;;;;15.13;11.27;;;;;;;;;;4967865;28;20742;-43
2022/05/20 06:02:11;;;;;;;20.90;12.03;;;;;;;;;;4961596;28;20643;-43
2022/05/20 06:04:38;;;;;;;22.47;15.03;;;;;;;;;;4964405;28;20722;-43
2022/05/20 06:07:05;;;;;;;19.63;14.43;;;;;;;;;;4950362;28;20202;-42
2022/05/20 06:09:31;;;;;;;26.70;15.70;;;;;;;;;;4965577;28;20880;-44
2022/05/20 06:11:57;;;;;;;18.70;13.50;;;;;;;;;;4965209;28;20182;-44
2022/05/20 06:14:23;;;;;;;21.50;14.37;;;;;;;;;;4962450;28;20292;-44
2022/05/20 06:16:49;;;;;;;21.03;15.27;;;;;;;;;;4962626;28;20372;-45
2022/05/20 06:19:15;;;;;;;20.87;13.77;;;;;;;;;;4958966;28;20296;-44
2022/05/20 06:21:42;;;;;;;22.03;14.33;;;;;;;;;;4959467;28;21044;-43
2022/05/20 06:24:08;;;;;;;19.50;13.73;;;;;;;;;;4958850;28;20434;-42
2022/05/20 06:26:35;;;;;;;18.27;13.03;;;;;;;;;;4963373;28;20546;-44
2022/05/20 06:29:02;;;;;;;19.97;13.80;;;;;;;;;;4962218;28;21004;-44
2022/05/20 06:31:29;;;;;;;20.50;13.10;;;;;;;;;;4957357;28;20195;-42
2022/05/20 06:33:57;;;;;;;18.07;11.57;;;;;;;;;;4959356;28;20192;-43
2022/05/20 06:41:54;;;;;;;20.53;12.63;;;;;;;;;;4960415;28;20197;-43
2022/05/20 06:44:20;;;;;;;18.97;12.70;;;;;;;;;;4961402;28;20196;-41
2022/05/20 06:46:46;;;;;;;27.73;21.03;;;;;;;;;;4963304;28;20953;-43
2022/05/20 06:49:12;;;;;;;34.03;28.77;;;;;;;;;;4965307;28;20190;-43
2022/05/20 06:51:38;;;;;;;43.93;32.10;;;;;;;;;;4961940;28;20178;-44
2022/05/20 06:54:07;;;;;;;26.03;22.40;;;;;;;;;;4959752;28;20233;-43
2022/05/20 06:56:33;;;;;;;29.97;18.37;;;;;;;;;;4960163;28;20545;-43
2022/05/20 06:59:00;;;;;;;22.27;16.97;;;;;;;;;;4965663;28;20210;-43
2022/05/20 07:01:27;;;;;;;21.03;12.50;;;;;;;;;;4959444;28;20212;-42
2022/05/20 07:03:53;;;;;;;16.67;10.97;;;;;;;;;;4960762;28;20245;-43
2022/05/20 07:06:19;;;;;;;13.40;10.43;;;;;;;;;;4962247;28;20690;-43
2022/05/20 07:08:48;;;;;;;15.17;10.43;;;;;;;;;;4963110;28;20623;-43
2022/05/20 07:11:18;;;;;;;16.77;10.57;;;;;;;;;;4959876;28;20185;-42
2022/05/20 07:13:44;;;;;;;11.70;9.27;;;;;;;;;;4960606;28;20190;-42
2022/05/20 07:16:10;;;;;;;18.10;10.70;;;;;;;;;;4963429;28;20630;-43
2022/05/20 07:18:37;;;;;;;12.20;9.53;;;;;;;;;;4959402;28;20209;-43
2022/05/20 07:21:04;;;;;;;19.13;10.40;;;;;;;;;;4955606;28;20186;-43
2022/05/20 07:23:31;;;;;;;15.97;10.40;;;;;;;;;;4960260;28;20482;-43
2022/05/20 07:25:57;;;;;;;13.83;10.30;;;;;;;;;;4963683;28;20529;-43
2022/05/20 07:28:24;;;;;;;13.57;10.10;;;;;;;;;;4961421;28;20252;-42
2022/05/20 07:30:50;;;;;;;16.17;10.17;;;;;;;;;;4958589;28;20823;-43
2022/05/20 07:33:16;;;;;;;14.07;10.00;;;;;;;;;;4960817;28;20179;-44
2022/05/20 07:35:42;;;;;;;13.73;9.47;;;;;;;;;;4961547;28;20185;-43
2022/05/20 07:38:09;;;;;;;16.67;9.93;;;;;;;;;;4959201;28;20567;-43
2022/05/20 07:40:36;;;;;;;12.20;8.50;;;;;;;;;;4961425;28;20178;-43
2022/05/20 07:43:02;;;;;;;16.23;9.33;;;;;;;;;;4964188;28;20193;-42
2022/05/20 07:45:28;;;;;;;11.07;7.63;;;;;;;;;;4961502;28;20314;-43
2022/05/20 07:47:54;;;;;;;12.57;8.77;;;;;;;;;;4960646;28;20189;-42
2022/05/20 07:50:21;;;;;;;14.97;7.43;;;;;;;;;;4964566;28;20194;-43
2022/05/20 07:55:35;;;;;;;13.07;9.17;;;;;;;;;;4956587;28;20515;-43
2022/05/20 07:58:03;;;;;;;12.50;8.47;;;;;;;;;;4961046;28;20453;-43
2022/05/20 08:00:29;;;;;;;18.10;9.57;;;;;;;;;;4943896;28;20189;-43
2022/05/20 08:02:57;;;;;;;10.33;7.43;;;;;;;;;;4959505;28;20175;-43
2022/05/20 08:05:23;;;;;;;15.17;9.37;;;;;;;;;;4961855;28;21143;-43
2022/05/20 08:07:50;;;;;;;18.30;9.53;;;;;;;;;;4966146;28;20175;-43
2022/05/20 08:10:22;;;;;;;15.43;9.00;;;;;;;;;;4959165;28;20293;-43
2022/05/20 08:12:49;;;;;;;14.53;8.13;;;;;;;;;;4962199;28;21237;-43
2022/05/20 08:15:15;;;;;;;10.33;7.40;;;;;;;;;;4966057;28;20213;-43
2022/05/20 08:17:43;;;;;;;11.40;8.00;;;;;;;;;;4961619;28;21014;-44
2022/05/20 08:20:13;;;;;;;12.17;9.50;;;;;;;;;;4959048;28;20191;-42
2022/05/20 08:22:39;;;;;;;15.73;7.60;;;;;;;;;;4964052;28;20829;-43
2022/05/20 08:25:06;;;;;;;9.80;7.83;;;;;;;;;;4961508;28;20242;-43
2022/05/20 08:27:32;;;;;;;11.13;7.87;;;;;;;;;;4961540;28;20217;-42
2022/05/20 08:30:02;;;;;;;11.60;9.43;;;;;;;;;;4958211;28;20179;-42
2022/05/20 08:32:28;;;;;;;13.87;9.30;;;;;;;;;;4943898;28;20189;-42
2022/05/20 08:34:54;;;;;;;12.60;8.80;;;;;;;;;;4943163;28;20256;-42
2022/05/20 08:37:20;;;;;;;12.63;7.80;;;;;;;;;;4961877;28;20208;-42
2022/05/20 08:39:46;;;;;;;10.47;8.73;;;;;;;;;;4960916;28;20178;-43
2022/05/20 08:42:21;;;;;;;10.70;7.03;;;;;;;;;;4965116;28;20261;-43
2022/05/20 08:44:47;;;;;;;9.83;6.00;;;;;;;;;;4961310;28;20177;-43
2022/05/20 08:47:20;;;;;;;13.67;7.57;;;;;;;;;;4960304;28;21678;-44
2022/05/20 08:49:46;;;;;;;14.63;8.00;;;;;;;;;;4961677;28;20174;-43
2022/05/20 08:52:12;;;;;;;13.70;8.70;;;;;;;;;;4962413;28;20317;-42
2022/05/20 08:54:39;;;;;;;12.37;8.63;;;;;;;;;;4961401;28;20185;-44
2022/05/20 08:57:19;;;;;;;10.17;8.47;;;;;;;;;;4961446;28;20629;-43
2022/05/20 08:59:45;;;;;;;18.23;10.10;;;;;;;;;;4964262;28;20228;-42
2022/05/20 09:02:11;;;;;;;12.83;8.93;;;;;;;;;;4963894;28;20272;-44
2022/05/20 09:04:37;;;;;;;16.83;9.97;;;;;;;;;;4959203;28;20170;-44
2022/05/20 09:07:14;;;;;;;14.80;8.43;;;;;;;;;;4957610;28;20262;-42
2022/05/20 09:09:41;;;;;;;14.17;8.67;;;;;;;;;;4960070;28;20364;-44
2022/05/20 09:12:07;;;;;;;14.40;9.07;;;;;;;;;;4956930;28;20414;-45
2022/05/20 09:17:23;;;;;;;7.43;6.43;;;;;;;;;;4965522;28;20733;-45
2022/05/20 09:20:04;;;;;;;12.57;8.07;;;;;;;;;;4963939;28;20190;-45
2022/05/20 09:22:38;;;;;;;11.70;8.10;;;;;;;;;;4956951;28;20193;-45
2022/05/20 09:25:20;;;;;;;11.77;7.60;;;;;;;;;;4962521;28;20293;-45
2022/05/20 09:27:47;;;;;;;13.90;8.20;;;;;;;;;;4963028;28;20300;-44
2022/05/20 09:30:14;;;;;;;12.47;7.27;;;;;;;;;;4961484;28;20836;-44
2022/05/20 09:32:43;;;;;;;12.87;7.30;;;;;;;;;;4942823;28;20638;-45
2022/05/20 09:35:18;;;;;;;10.37;6.77;;;;;;;;;;4963848;28;20182;-45
2022/05/20 09:37:45;;;;;;;7.33;5.67;;;;;;;;;;4960875;28;20201;-44
2022/05/20 09:40:25;;;;;;;12.37;6.30;;;;;;;;;;4960925;28;20183;-44
2022/05/20 09:42:58;;;;;;;12.73;6.70;;;;;;;;;;4966137;28;20590;-44
2022/05/20 09:45:24;;;;;;;11.57;6.70;;;;;;;;;;4959340;28;20671;-43
2022/05/20 09:47:53;;;;;;;10.10;6.37;;;;;;;;;;4963236;28;20182;-44
2022/05/20 09:50:31;;;;;;;9.63;6.10;;;;;;;;;;4958347;28;20423;-44
2022/05/20 09:53:12;;;;;;;10.47;6.60;;;;;;;;;;4963321;28;20209;-44
2022/05/20 09:55:40;;;;;;;10.23;6.37;;;;;;;;;;4957999;28;20927;-44
2022/05/20 09:58:09;;;;;;;9.83;6.30;;;;;;;;;;4961767;28;20277;-44
2022/05/20 10:00:36;;;;;;;12.43;6.83;;;;;;;;;;4961438;28;20175;-43
2022/05/20 10:03:21;;;;;;;12.37;6.30;;;;;;;;;;4960987;28;21129;-44
2022/05/20 10:05:57;;;;;;;11.27;6.63;;;;;;;;;;4960738;28;20706;-42
2022/05/20 10:08:41;;;;;;;12.00;6.67;;;;;;;;;;4961633;28;20202;-44
2022/05/20 10:11:11;;;;;;;10.33;6.23;;;;;;;;;;4963419;28;20244;-44
2022/05/20 10:13:56;;;;;;;10.93;6.37;;;;;;;;;;4959886;28;20536;-43
2022/05/20 10:16:34;;;;;;;11.33;5.90;;;;;;;;;;4961513;28;20178;-43
2022/05/20 10:19:18;;;;;;;9.70;5.90;;;;;;;;;;4961430;28;20210;-43
2022/05/20 10:21:56;;;;;;;12.30;6.23;;;;;;;;;;4961712;28;20716;-43
2022/05/20 10:24:37;;;;;;;12.37;5.70;;;;;;;;;;4964044;28;20370;-43
2022/05/20 10:27:05;;;;;;;11.40;5.43;;;;;;;;;;4957716;28;20710;-43
2022/05/20 10:32:43;;;;;;;9.07;5.60;;;;;;;;;;4959652;28;20189;-42
2022/05/20 10:35:10;;;;;;;10.63;5.20;;;;;;;;;;4962146;28;20188;-43
2022/05/20 10:37:39;;;;;;;11.13;5.47;;;;;;;;;;4964688;28;20231;-44
2022/05/20 10:40:13;;;;;;;10.00;4.90;;;;;;;;;;4962955;28;20186;-43
2022/05/20 10:42:55;;;;;;;8.77;5.30;;;;;;;;;;4960425;28;20196;-43
2022/05/20 10:48:37;;;;;;;8.30;4.50;;;;;;;;;;4961442;28;21280;-43
2022/05/20 10:51:12;;;;;;;9.80;4.33;;;;;;;;;;4960511;28;20182;-43
2022/05/20 10:53:41;;;;;;;8.47;4.77;;;;;;;;;;4962485;28;20652;-43
2022/05/20 10:56:10;;;;;;;10.63;4.53;;;;;;;;;;4959456;28;20661;-43
2022/05/20 10:58:49;;;;;;;10.27;4.90;;;;;;;;;;4960334;28;20202;-41
2022/05/20 11:01:21;;;;;;;12.53;4.80;;;;;;;;;;4964202;28;20182;-43
2022/05/20 11:04:06;;;;;;;7.13;4.70;;;;;;;;;;4956379;28;20182;-43
2022/05/20 11:06:35;;;;;;;9.10;4.90;;;;;;;;;;4960863;28;20745;-42
2022/05/20 11:09:07;;;;;;;9.77;4.80;;;;;;;;;;4962653;28;20396;-43
2022/05/20 11:11:53;;;;;;;8.50;4.27;;;;;;;;;;4961390;28;20628;-43
2022/05/20 11:14:44;;;;;;;7.00;4.40;;;;;;;;;;4955052;28;20193;-42
2022/05/20 11:17:19;;;;;;;9.50;4.53;;;;;;;;;;4962678;28;20181;-42
2022/05/20 11:19:57;;;;;;;8.10;4.30;;;;;;;;;;4963836;28;20643;-42
2022/05/20 11:22:31;;;;;;;8.90;4.77;;;;;;;;;;4961820;28;20170;-42
2022/05/20 11:25:13;;;;;;;7.37;5.00;;;;;;;;;;4962794;28;20523;-42
2022/05/20 11:27:52;;;;;;;7.23;4.83;;;;;;;;;;4958686;28;20654;-43
2022/05/20 11:30:40;;;;;;;12.57;4.47;;;;;;;;;;4960762;28;20330;-43
2022/05/20 11:33:15;;;;;;;8.80;4.20;;;;;;;;;;4959880;28;20609;-43
2022/05/20 11:36:00;;;;;;;7.00;4.33;;;;;;;;;;4958963;28;20189;-41
2022/05/20 11:38:44;;;;;;;10.00;4.10;;;;;;;;;;4961884;28;20790;-43
2022/05/20 11:41:30;;;;;;;6.73;4.00;;;;;;;;;;4958012;28;20190;-42
2022/05/20 11:44:15;;;;;;;10.20;4.40;;;;;;;;;;4961794;28;20615;-43
2022/05/20 11:46:53;;;;;;;10.50;4.70;;;;;;;;;;4960272;28;20280;-43
2022/05/20 11:49:25;;;;;;;4.97;4.00;;;;;;;;;;4955690;28;20185;-40
2022/05/20 11:51:51;;;;;;;9.67;4.20;;;;;;;;;;4958468;28;20808;-42
2022/05/20 11:54:24;;;;;;;7.40;3.77;;;;;;;;;;4961022;28;20198;-43
2022/05/20 11:56:51;;;;;;;11.60;3.77;;;;;;;;;;4960247;28;20651;-41
2022/05/20 11:59:20;;;;;;;7.53;3.93;;;;;;;;;;4958885;28;20772;-43
2022/05/20 12:01:50;;;;;;;5.87;3.50;;;;;;;;;;4960538;28;20416;-43
2022/05/20 12:04:17;;;;;;;7.43;3.47;;;;;;;;;;4962338;28;20166;-43
2022/05/20 12:06:46;;;;;;;8.17;3.40;;;;;;;;;;4956687;28;20174;-42
2022/05/20 12:09:34;;;;;;;5.73;3.90;;;;;;;;;;4957507;28;20187;-42
2022/05/20 12:12:12;;;;;;;6.23;3.57;;;;;;;;;;4962316;28;20609;-43
2022/05/20 12:14:57;;;;;;;7.70;3.90;;;;;;;;;;4960144;28;20826;-43
2022/05/20 12:17:35;;;;;;;8.63;4.03;;;;;;;;;;4956419;28;20182;-43
2022/05/20 12:26:11;;;;;;;7.37;3.80;;;;;;;;;;4960557;28;20316;-43
2022/05/20 12:28:39;;;;;;;6.47;3.70;;;;;;;;;;4925292;28;20236;-43
2022/05/20 12:31:14;;;;;;;6.87;3.87;;;;;;;;;;4958524;28;20181;-43
2022/05/20 12:34:00;;;;;;;8.30;3.53;;;;;;;;;;4958965;28;20704;-43
2022/05/20 12:36:29;;;;;;;7.47;3.47;;;;;;;;;;4957649;28;21477;-43
2022/05/20 12:39:07;;;;;;;8.70;3.70;;;;;;;;;;4957814;28;20852;-43
2022/05/20 12:41:33;;;;;;;7.93;3.80;;;;;;;;;;4958987;28;20833;-43
2022/05/20 12:44:01;;;;;;;5.60;3.63;;;;;;;;;;4958492;28;20182;-42
2022/05/20 12:46:48;;;;;;;6.97;3.67;;;;;;;;;;4957184;28;20290;-40
2022/05/20 12:49:14;;;;;;;6.07;3.40;;;;;;;;;;4930592;28;20202;-42
2022/05/20 12:51:45;;;;;;;4.90;3.40;;;;;;;;;;4960049;28;20711;-42
2022/05/20 12:54:19;;;;;;;8.43;3.67;;;;;;;;;;4956728;28;20743;-42
2022/05/20 12:56:45;;;;;;;9.20;3.70;;;;;;;;;;4955123;28;20480;-43
2022/05/20 12:59:12;;;;;;;5.20;3.63;;;;;;;;;;4959942;28;20216;-42
2022/05/20 13:01:38;;;;;;;7.67;3.30;;;;;;;;;;4958596;28;20184;-42
2022/05/20 13:04:09;;;;;;;6.13;3.83;;;;;;;;;;4957540;28;20894;-40
2022/05/20 13:06:35;;;;;;;5.67;3.50;;;;;;;;;;4959524;28;20644;-40
2022/05/20 13:09:03;;;;;;;8.50;3.50;;;;;;;;;;4955554;28;21742;-42
2022/05/20 13:11:40;;;;;;;6.63;3.53;;;;;;;;;;4957784;28;20601;-42
2022/05/20 13:14:11;;;;;;;5.93;3.53;;;;;;;;;;4956453;28;20266;-41
2022/05/20 13:16:37;;;;;;;5.27;3.30;;;;;;;;;;4955906;28;20736;-41
2022/05/20 13:19:09;;;;;;;4.00;2.83;;;;;;;;;;4956619;28;20260;-41
2022/05/20 13:21:42;;;;;;;7.80;3.30;;;;;;;;;;4959097;28;20187;-42
2022/05/20 13:24:15;;;;;;;9.37;3.30;;;;;;;;;;4958692;28;20540;-42
2022/05/20 13:26:42;;;;;;;7.43;3.77;;;;;;;;;;4955732;28;20489;-42
2022/05/20 13:29:13;;;;;;;7.13;3.70;;;;;;;;;;4958013;28;20872;-42
2022/05/20 13:31:39;;;;;;;6.77;3.40;;;;;;;;;;4937446;28;20256;-42
2022/05/20 13:34:05;;;;;;;6.20;3.40;;;;;;;;;;4956937;28;20186;-42
2022/05/20 13:36:41;;;;;;;9.03;3.60;;;;;;;;;;4955238;28;20249;-41
2022/05/20 13:39:07;;;;;;;6.13;3.40;;;;;;;;;;4954590;28;20317;-42
2022/05/20 13:41:34;;;;;;;7.63;3.50;;;;;;;;;;4956062;28;20166;-42
2022/05/20 13:44:01;;;;;;;5.53;3.40;;;;;;;;;;4955848;28;20191;-42
2022/05/20 13:49:19;;;;;;;6.00;3.40;;;;;;;;;;4955610;28;20546;-42
2022/05/20 13:51:46;;;;;;;5.13;3.80;;;;;;;;;;4956315;28;20178;-42
2022/05/20 13:54:14;;;;;;;6.23;3.50;;;;;;;;;;4955861;28;20202;-43
2022/05/20 13:56:42;;;;;;;4.13;3.13;;;;;;;;;;4955267;28;20953;-44
2022/05/20 13:59:23;;;;;;;6.63;3.10;;;;;;;;;;4957209;28;20210;-43
2022/05/20 14:01:52;;;;;;;5.70;3.57;;;;;;;;;;4955412;28;20710;-42
2022/05/20 14:04:19;;;;;;;3.77;2.90;;;;;;;;;;4957158;28;20171;-43
2022/05/20 14:06:45;;;;;;;7.87;3.47;;;;;;;;;;4956978;28;20191;-44
2022/05/20 14:09:12;;;;;;;6.70;3.30;;;;;;;;;;4958529;28;20183;-43
2022/05/20 14:11:42;;;;;;;11.37;3.70;;;;;;;;;;4958801;28;20647;-43
2022/05/20 14:14:14;;;;;;;8.30;3.60;;;;;;;;;;4957525;28;20197;-43
2022/05/20 14:16:41;;;;;;;7.30;3.50;;;;;;;;;;4959367;28;20981;-43
2022/05/20 14:19:18;;;;;;;7.97;3.90;;;;;;;;;;4955180;28;20623;-42
2022/05/20 14:21:44;;;;;;;8.23;3.67;;;;;;;;;;4956287;28;20252;-43
2022/05/20 14:24:16;;;;;;;6.77;3.70;;;;;;;;;;4958669;28;20171;-44
2022/05/20 14:26:44;;;;;;;8.93;3.40;;;;;;;;;;4957441;28;20740;-44
2022/05/20 14:29:10;;;;;;;4.80;3.17;;;;;;;;;;4960096;28;20403;-43
2022/05/20 14:31:43;;;;;;;7.13;3.60;;;;;;;;;;4937159;28;20174;-43
2022/05/20 14:34:15;;;;;;;5.80;3.37;;;;;;;;;;4963654;28;20873;-43
2022/05/20 14:36:41;;;;;;;6.27;3.70;;;;;;;;;;4962726;28;21072;-43
2022/05/20 14:39:09;;;;;;;8.07;3.60;;;;;;;;;;4957534;28;20238;-44
2022/05/20 14:41:37;;;;;;;5.93;3.77;;;;;;;;;;4962185;28;20341;-43
2022/05/20 14:44:12;;;;;;;6.03;3.90;;;;;;;;;;4961634;28;20221;-43
2022/05/20 14:49:31;;;;;;;8.00;3.50;;;;;;;;;;4962033;28;20217;-42
2022/05/20 14:51:58;;;;;;;10.60;4.00;;;;;;;;;;4963241;28;20186;-43
2022/05/20 14:54:40;;;;;;;4.90;3.53;;;;;;;;;;4958295;28;20253;-43
2022/05/20 14:57:26;;;;;;;8.93;4.03;;;;;;;;;;4960614;28;20211;-43
2022/05/20 15:00:11;;;;;;;6.67;3.93;;;;;;;;;;4961620;28;20594;-42
2022/05/20 15:02:37;;;;;;;6.97;3.73;;;;;;;;;;4964917;28;20175;-41
2022/05/20 15:05:04;;;;;;;7.53;4.00;;;;;;;;;;4962104;28;20201;-43
2022/05/20 15:07:30;;;;;;;6.70;4.30;;;;;;;;;;4966831;28;20181;-43
2022/05/20 15:09:56;;;;;;;8.60;3.77;;;;;;;;;;4968058;28;20206;-42
2022/05/20 15:12:23;;;;;;;8.17;3.97;;;;;;;;;;4961775;28;20182;-43
2022/05/20 15:14:49;;;;;;;11.80;3.97;;;;;;;;;;4959970;28;20293;-43
2022/05/20 15:17:18;;;;;;;6.37;3.87;;;;;;;;;;4962783;28;20304;-43
2022/05/20 15:19:45;;;;;;;6.83;3.90;;;;;;;;;;4962142;28;20272;-43
2022/05/20 15:22:12;;;;;;;6.57;4.07;;;;;;;;;;4960359;28;20178;-43
2022/05/20 15:24:44;;;;;;;9.47;3.80;;;;;;;;;;4962122;28;20179;-43
2022/05/20 15:27:32;;;;;;;6.63;3.63;;;;;;;;;;4963582;28;20205;-43
2022/05/20 15:29:59;;;;;;;7.37;3.70;;;;;;;;;;4957125;28;20186;-43
2022/05/20 15:35:10;;;;;;;5.00;3.47;;;;;;;;;;4956480;28;20300;-42
2022/05/20 15:37:40;;;;;;;5.63;4.03;;;;;;;;;;4936478;28;20186;-43
2022/05/20 15:40:06;;;;;;;5.87;3.90;;;;;;;;;;4959401;28;20194;-43